sensor_id;sensor_type;location;lat;lon;timestamp;pressure;altitude;pressure_sealevel;temperature;humidity
63652;BME280;68011;37.386;-122.002;2023-03-07T00:00:12;67286.50;;;-147.42;100.00
63652;BME280;68011;37.386;-122.002;2023-03-07T00:00:39;67286.50;;;-147.42;100.00
63652;BME280;68011;37.386;-122.002;2023-03-07T00:01:05;67286.50;;;-147.42;100.00
63652;BME280;68011;37.386;-122.002;2023-03-07T00:01:32;67286.50;;;-147.42;100.00
63652;BME280;68011;37.386;-122.002;2023-03-07T00:01:59;67286.50;;;-147.42;100.00
63652;BME280;68011;37.386;-122.002;2023-03-07T00:02:25;67286.50;;;-147.42;100.00
63652;BME280;68011;37.386;-122.002;2023-03-07T00:02:51;67286.50;;;-147.42;100.00
63652;BME280;68011;37.386;-122.002;2023-03-07T00:03:18;67286.50;;;-147.42;100.00
63652;BME280;68011;37.386;-122.002;2023-03-07T00:03:45;67286.50;;;-147.42;100.00
63652;BME280;68011;37.386;-122.002;2023-03-07T00:04:12;67286.50;;;-147.42;100.00
63652;BME280;68011;37.386;-122.002;2023-03-07T00:04:42;67286.50;;;-147.42;100.00
63652;BME280;68011;37.386;-122.002;2023-03-07T00:05:09;67286.50;;;-147.42;100.00
63652;BME280;68011;37.386;-122.002;2023-03-07T00:05:35;67286.50;;;-147.42;100.00
63652;BME280;68011;37.386;-122.002;2023-03-07T00:06:07;67286.50;;;-147.42;100.00
63652;BME280;68011;37.386;-122.002;2023-03-07T00:06:35;67286.50;;;-147.42;100.00
63652;BME280;68011;37.386;-122.002;2023-03-07T00:07:01;67286.50;;;-147.42;100.00
63652;BME280;68011;37.386;-122.002;2023-03-07T00:07:29;67286.50;;;-147.42;100.00
63652;BME280;68011;37.386;-122.002;2023-03-07T00:07:56;67286.50;;;-147.42;100.00
63652;BME280;68011;37.386;-122.002;2023-03-07T00:08:23;67286.50;;;-147.42;100.00
63652;BME280;68011;37.386;-122.002;2023-03-07T00:08:57;67286.50;;;-147.42;100.00
63652;BME280;68011;37.386;-122.002;2023-03-07T00:09:24;67286.50;;;-147.42;100.00
63652;BME280;68011;37.386;-122.002;2023-03-07T00:09:50;67286.50;;;-147.42;100.00
63652;BME280;68011;37.386;-122.002;2023-03-07T00:10:18;67286.50;;;-147.42;100.00
63652;BME280;68011;37.386;-122.002;2023-03-07T00:10:44;67286.50;;;-147.42;100.00
63652;BME280;68011;37.386;-122.002;2023-03-07T00:11:10;67286.50;;;-147.42;100.00
63652;BME280;68011;37.386;-122.002;2023-03-07T00:11:37;67286.50;;;-147.42;100.00
63652;BME280;68011;37.386;-122.002;2023-03-07T00:12:04;67286.50;;;-147.42;100.00
63652;BME280;68011;37.386;-122.002;2023-03-07T00:12:30;67286.50;;;-147.42;100.00
63652;BME280;68011;37.386;-122.002;2023-03-07T00:12:56;67286.50;;;-147.42;100.00
63652;BME280;68011;37.386;-122.002;2023-03-07T00:13:22;67286.50;;;-147.42;100.00
63652;BME280;68011;37.386;-122.002;2023-03-07T00:13:50;67286.50;;;-147.42;100.00
63652;BME280;68011;37.386;-122.002;2023-03-07T00:14:16;67286.50;;;-147.42;100.00
63652;BME280;68011;37.386;-122.002;2023-03-07T00:14:43;67286.50;;;-147.42;100.00
63652;BME280;68011;37.386;-122.002;2023-03-07T00:15:10;67286.50;;;-147.42;100.00
63652;BME280;68011;37.386;-122.002;2023-03-07T00:15:37;67286.50;;;-147.42;100.00
63652;BME280;68011;37.386;-122.002;2023-03-07T00:16:07;67286.50;;;-147.42;100.00
63652;BME280;68011;37.386;-122.002;2023-03-07T00:16:34;67286.50;;;-147.42;100.00
63652;BME280;68011;37.386;-122.002;2023-03-07T00:17:00;67286.50;;;-147.42;100.00
63652;BME280;68011;37.386;-122.002;2023-03-07T00:17:27;67286.50;;;-147.42;100.00
63652;BME280;68011;37.386;-122.002;2023-03-07T00:17:53;67286.50;;;-147.42;100.00
63652;BME280;68011;37.386;-122.002;2023-03-07T00:18:19;67286.50;;;-147.42;100.00
63652;BME280;68011;37.386;-122.002;2023-03-07T00:18:45;67286.50;;;-147.42;100.00
63652;BME280;68011;37.386;-122.002;2023-03-07T00:19:12;67286.50;;;-147.42;100.00
63652;BME280;68011;37.386;-122.002;2023-03-07T00:19:41;67286.50;;;-147.42;100.00
63652;BME280;68011;37.386;-122.002;2023-03-07T00:20:09;67286.50;;;-147.42;100.00
63652;BME280;68011;37.386;-122.002;2023-03-07T00:20:36;67286.50;;;-147.42;100.00
63652;BME280;68011;37.386;-122.002;2023-03-07T00:21:05;67286.50;;;-147.42;100.00
63652;BME280;68011;37.386;-122.002;2023-03-07T00:21:31;67286.50;;;-147.42;100.00
63652;BME280;68011;37.386;-122.002;2023-03-07T00:21:58;67286.50;;;-147.42;100.00
63652;BME280;68011;37.386;-122.002;2023-03-07T00:22:24;67286.50;;;-147.42;100.00
63652;BME280;68011;37.386;-122.002;2023-03-07T00:22:50;67286.50;;;-147.42;100.00
63652;BME280;68011;37.386;-122.002;2023-03-07T00:23:16;67286.50;;;-147.42;100.00
63652;BME280;68011;37.386;-122.002;2023-03-07T00:23:44;67286.50;;;-147.42;100.00
63652;BME280;68011;37.386;-122.002;2023-03-07T00:24:10;67286.50;;;-147.42;100.00
63652;BME280;68011;37.386;-122.002;2023-03-07T00:24:36;67286.50;;;-147.42;100.00
63652;BME280;68011;37.386;-122.002;2023-03-07T00:25:03;67286.50;;;-147.42;100.00
63652;BME280;68011;37.386;-122.002;2023-03-07T00:25:30;67286.50;;;-147.42;100.00
63652;BME280;68011;37.386;-122.002;2023-03-07T00:26:03;67286.50;;;-147.42;100.00
63652;BME280;68011;37.386;-122.002;2023-03-07T00:26:30;67286.50;;;-147.42;100.00
63652;BME280;68011;37.386;-122.002;2023-03-07T00:26:57;67286.50;;;-147.42;100.00
63652;BME280;68011;37.386;-122.002;2023-03-07T00:27:23;67286.50;;;-147.42;100.00
63652;BME280;68011;37.386;-122.002;2023-03-07T00:27:49;67286.50;;;-147.42;100.00
63652;BME280;68011;37.386;-122.002;2023-03-07T00:28:15;67286.50;;;-147.42;100.00
63652;BME280;68011;37.386;-122.002;2023-03-07T00:28:43;67286.50;;;-147.42;100.00
63652;BME280;68011;37.386;-122.002;2023-03-07T00:29:10;67286.50;;;-147.42;100.00
63652;BME280;68011;37.386;-122.002;2023-03-07T00:29:36;67286.50;;;-147.42;100.00
63652;BME280;68011;37.386;-122.002;2023-03-07T00:30:03;67286.50;;;-147.42;100.00
63652;BME280;68011;37.386;-122.002;2023-03-07T00:30:30;67286.50;;;-147.42;100.00
63652;BME280;68011;37.386;-122.002;2023-03-07T00:31:01;67286.50;;;-147.42;100.00
63652;BME280;68011;37.386;-122.002;2023-03-07T00:31:28;67286.50;;;-147.42;100.00
63652;BME280;68011;37.386;-122.002;2023-03-07T00:31:54;67286.50;;;-147.42;100.00
63652;BME280;68011;37.386;-122.002;2023-03-07T00:32:20;67286.50;;;-147.42;100.00
63652;BME280;68011;37.386;-122.002;2023-03-07T00:32:46;67286.50;;;-147.42;100.00
63652;BME280;68011;37.386;-122.002;2023-03-07T00:33:13;67286.50;;;-147.42;100.00
63652;BME280;68011;37.386;-122.002;2023-03-07T00:33:39;67286.50;;;-147.42;100.00
63652;BME280;68011;37.386;-122.002;2023-03-07T00:34:06;67286.50;;;-147.42;100.00
63652;BME280;68011;37.386;-122.002;2023-03-07T00:34:32;67286.50;;;-147.42;100.00
63652;BME280;68011;37.386;-122.002;2023-03-07T00:34:58;67286.50;;;-147.42;100.00
63652;BME280;68011;37.386;-122.002;2023-03-07T00:35:25;67286.50;;;-147.42;100.00
63652;BME280;68011;37.386;-122.002;2023-03-07T00:36:15;67286.50;;;-147.42;100.00
63652;BME280;68011;37.386;-122.002;2023-03-07T00:36:42;67286.50;;;-147.42;100.00
63652;BME280;68011;37.386;-122.002;2023-03-07T00:37:08;67286.50;;;-147.42;100.00
63652;BME280;68011;37.386;-122.002;2023-03-07T00:37:35;67286.50;;;-147.42;100.00
63652;BME280;68011;37.386;-122.002;2023-03-07T00:38:01;67286.50;;;-147.42;100.00
63652;BME280;68011;37.386;-122.002;2023-03-07T00:38:29;67286.50;;;-147.42;100.00
63652;BME280;68011;37.386;-122.002;2023-03-07T00:38:56;67286.50;;;-147.42;100.00
63652;BME280;68011;37.386;-122.002;2023-03-07T00:39:22;67286.50;;;-147.42;100.00
63652;BME280;68011;37.386;-122.002;2023-03-07T00:39:48;67286.50;;;-147.42;100.00
63652;BME280;68011;37.386;-122.002;2023-03-07T00:40:15;67286.50;;;-147.42;100.00
63652;BME280;68011;37.386;-122.002;2023-03-07T00:40:41;67286.50;;;-147.42;100.00
63652;BME280;68011;37.386;-122.002;2023-03-07T00:41:10;67286.50;;;-147.42;100.00
63652;BME280;68011;37.386;-122.002;2023-03-07T00:41:36;67286.50;;;-147.42;100.00
63652;BME280;68011;37.386;-122.002;2023-03-07T00:42:02;67286.50;;;-147.42;100.00
63652;BME280;68011;37.386;-122.002;2023-03-07T00:42:29;67286.50;;;-147.42;100.00
63652;BME280;68011;37.386;-122.002;2023-03-07T00:42:56;67286.50;;;-147.42;100.00
63652;BME280;68011;37.386;-122.002;2023-03-07T00:43:22;67286.50;;;-147.42;100.00
63652;BME280;68011;37.386;-122.002;2023-03-07T00:43:49;67286.50;;;-147.42;100.00
63652;BME280;68011;37.386;-122.002;2023-03-07T00:44:15;67286.50;;;-147.42;100.00
63652;BME280;68011;37.386;-122.002;2023-03-07T00:44:42;67286.50;;;-147.42;100.00
63652;BME280;68011;37.386;-122.002;2023-03-07T00:45:08;67286.50;;;-147.42;100.00
63652;BME280;68011;37.386;-122.002;2023-03-07T00:45:35;67286.50;;;-147.42;100.00
63652;BME280;68011;37.386;-122.002;2023-03-07T00:46:02;67286.50;;;-147.42;100.00
63652;BME280;68011;37.386;-122.002;2023-03-07T00:46:29;67286.50;;;-147.42;100.00
63652;BME280;68011;37.386;-122.002;2023-03-07T00:46:55;67286.50;;;-147.42;100.00
63652;BME280;68011;37.386;-122.002;2023-03-07T00:47:21;67286.50;;;-147.42;100.00
63652;BME280;68011;37.386;-122.002;2023-03-07T00:47:47;67286.50;;;-147.42;100.00
63652;BME280;68011;37.386;-122.002;2023-03-07T00:48:14;67286.50;;;-147.42;100.00
63652;BME280;68011;37.386;-122.002;2023-03-07T00:48:40;67286.50;;;-147.42;100.00
63652;BME280;68011;37.386;-122.002;2023-03-07T00:49:06;67286.50;;;-147.42;100.00
63652;BME280;68011;37.386;-122.002;2023-03-07T00:49:33;67286.50;;;-147.42;100.00
63652;BME280;68011;37.386;-122.002;2023-03-07T00:49:59;67286.50;;;-147.42;100.00
63652;BME280;68011;37.386;-122.002;2023-03-07T00:50:25;67286.50;;;-147.42;100.00
63652;BME280;68011;37.386;-122.002;2023-03-07T00:51:26;101917.94;;;14.17;39.96
63652;BME280;68011;37.386;-122.002;2023-03-07T00:51:52;101916.50;;;13.88;39.70
63652;BME280;68011;37.386;-122.002;2023-03-07T00:52:19;101927.00;;;13.75;39.49
63652;BME280;68011;37.386;-122.002;2023-03-07T00:52:45;101918.44;;;13.53;39.35
63652;BME280;68011;37.386;-122.002;2023-03-07T00:53:11;101920.44;;;13.43;39.92
63652;BME280;68011;37.386;-122.002;2023-03-07T00:53:37;101926.16;;;13.31;39.64
63652;BME280;68011;37.386;-122.002;2023-03-07T00:54:04;101921.31;;;13.25;39.37
63652;BME280;68011;37.386;-122.002;2023-03-07T00:54:30;101917.22;;;13.21;40.03
63652;BME280;68011;37.386;-122.002;2023-03-07T00:54:56;101916.00;;;13.16;39.63
63652;BME280;68011;37.386;-122.002;2023-03-07T00:55:23;101922.28;;;13.16;39.88
63652;BME280;68011;37.386;-122.002;2023-03-07T00:56:00;101926.88;;;13.16;39.86
63652;BME280;68011;37.386;-122.002;2023-03-07T00:56:26;101923.31;;;13.15;40.10
63652;BME280;68011;37.386;-122.002;2023-03-07T00:56:53;101921.50;;;13.24;40.07
63652;BME280;68011;37.386;-122.002;2023-03-07T00:57:19;101916.09;;;13.32;40.06
63652;BME280;68011;37.386;-122.002;2023-03-07T00:57:45;101925.34;;;13.39;39.91
63652;BME280;68011;37.386;-122.002;2023-03-07T00:58:11;101916.00;;;13.42;39.99
63652;BME280;68011;37.386;-122.002;2023-03-07T00:58:38;101911.75;;;13.39;39.77
63652;BME280;68011;37.386;-122.002;2023-03-07T00:59:04;101921.75;;;13.39;40.09
63652;BME280;68011;37.386;-122.002;2023-03-07T00:59:30;101920.06;;;13.38;39.41
63652;BME280;68011;37.386;-122.002;2023-03-07T00:59:56;101925.44;;;13.29;39.50
63652;BME280;68011;37.386;-122.002;2023-03-07T01:00:23;101921.06;;;13.10;39.53
63652;BME280;68011;37.386;-122.002;2023-03-07T01:00:49;101922.72;;;13.03;39.68
63652;BME280;68011;37.386;-122.002;2023-03-07T01:01:18;101926.25;;;12.95;39.67
63652;BME280;68011;37.386;-122.002;2023-03-07T01:01:45;101918.00;;;12.87;39.91
63652;BME280;68011;37.386;-122.002;2023-03-07T01:02:11;101921.47;;;12.89;40.17
63652;BME280;68011;37.386;-122.002;2023-03-07T01:02:37;101915.34;;;12.95;40.53
63652;BME280;68011;37.386;-122.002;2023-03-07T01:03:03;101919.78;;;12.97;40.06
63652;BME280;68011;37.386;-122.002;2023-03-07T01:03:30;101920.50;;;12.99;40.36
63652;BME280;68011;37.386;-122.002;2023-03-07T01:03:57;101920.50;;;12.99;40.32
63652;BME280;68011;37.386;-122.002;2023-03-07T01:04:23;101916.41;;;13.03;40.26
63652;BME280;68011;37.386;-122.002;2023-03-07T01:04:49;101927.66;;;13.08;40.19
63652;BME280;68011;37.386;-122.002;2023-03-07T01:05:15;101912.75;;;13.12;40.14
63652;BME280;68011;37.386;-122.002;2023-03-07T01:05:42;101922.06;;;13.09;40.43
63652;BME280;68011;37.386;-122.002;2023-03-07T01:06:12;101926.34;;;13.12;40.27
63652;BME280;68011;37.386;-122.002;2023-03-07T01:06:39;101924.31;;;13.14;40.55
63652;BME280;68011;37.386;-122.002;2023-03-07T01:07:05;101922.28;;;13.16;40.41
63652;BME280;68011;37.386;-122.002;2023-03-07T01:07:32;101925.81;;;13.08;40.42
63652;BME280;68011;37.386;-122.002;2023-03-07T01:07:58;101919.50;;;13.08;40.64
63652;BME280;68011;37.386;-122.002;2023-03-07T01:08:25;101924.09;;;13.07;40.30
63652;BME280;68011;37.386;-122.002;2023-03-07T01:08:51;101912.38;;;13.07;40.30
63652;BME280;68011;37.386;-122.002;2023-03-07T01:09:18;101926.97;;;13.06;40.23
63652;BME280;68011;37.386;-122.002;2023-03-07T01:09:44;101923.56;;;13.04;39.87
63652;BME280;68011;37.386;-122.002;2023-03-07T01:10:14;101927.81;;;13.06;39.79
63652;BME280;68011;37.386;-122.002;2023-03-07T01:10:41;101927.66;;;13.00;39.79
63652;BME280;68011;37.386;-122.002;2023-03-07T01:11:08;101920.16;;;13.02;39.68
63652;BME280;68011;37.386;-122.002;2023-03-07T01:11:35;101921.84;;;13.03;39.78
63652;BME280;68011;37.386;-122.002;2023-03-07T01:12:01;101923.56;;;13.04;39.95
63652;BME280;68011;37.386;-122.002;2023-03-07T01:12:31;101923.03;;;13.00;40.17
63652;BME280;68011;37.386;-122.002;2023-03-07T01:13:00;101925.25;;;12.97;40.40
63652;BME280;68011;37.386;-122.002;2023-03-07T01:13:27;101928.56;;;12.90;40.61
63652;BME280;68011;37.386;-122.002;2023-03-07T01:13:57;101925.47;;;12.85;40.61
63652;BME280;68011;37.386;-122.002;2023-03-07T01:14:24;101927.66;;;12.82;40.52
63652;BME280;68011;37.386;-122.002;2023-03-07T01:14:50;101930.84;;;12.77;40.63
63652;BME280;68011;37.386;-122.002;2023-03-07T01:15:16;101923.72;;;12.76;40.85
63652;BME280;68011;37.386;-122.002;2023-03-07T01:15:42;101922.00;;;12.75;40.74
63652;BME280;68011;37.386;-122.002;2023-03-07T01:16:16;101927.44;;;12.75;40.73
63652;BME280;68011;37.386;-122.002;2023-03-07T01:16:42;101919.59;;;12.72;40.69
63652;BME280;68011;37.386;-122.002;2023-03-07T01:17:08;101926.44;;;12.76;40.83
63652;BME280;68011;37.386;-122.002;2023-03-07T01:17:34;101925.25;;;12.79;40.86
63652;BME280;68011;37.386;-122.002;2023-03-07T01:18:01;101926.13;;;12.79;40.98
63652;BME280;68011;37.386;-122.002;2023-03-07T01:18:28;101926.13;;;12.79;41.08
63652;BME280;68011;37.386;-122.002;2023-03-07T01:18:56;101924.41;;;12.78;40.90
63652;BME280;68011;37.386;-122.002;2023-03-07T01:19:23;101921.31;;;12.73;41.02
63652;BME280;68011;37.386;-122.002;2023-03-07T01:19:49;101923.03;;;12.74;41.33
63652;BME280;68011;37.386;-122.002;2023-03-07T01:20:15;101927.81;;;12.80;41.27
63652;BME280;68011;37.386;-122.002;2023-03-07T01:20:42;101925.63;;;12.84;41.30
63652;BME280;68011;37.386;-122.002;2023-03-07T01:21:17;101924.09;;;12.81;41.75
63652;BME280;68011;37.386;-122.002;2023-03-07T01:21:43;101917.47;;;12.84;41.84
63652;BME280;68011;37.386;-122.002;2023-03-07T01:22:10;101918.66;;;12.81;41.75
63652;BME280;68011;37.386;-122.002;2023-03-07T01:22:36;101921.53;;;12.80;41.76
63652;BME280;68011;37.386;-122.002;2023-03-07T01:23:04;101921.38;;;12.81;41.34
63652;BME280;68011;37.386;-122.002;2023-03-07T01:23:30;101925.47;;;12.85;41.38
63652;BME280;68011;37.386;-122.002;2023-03-07T01:23:57;101923.06;;;12.82;41.17
63652;BME280;68011;37.386;-122.002;2023-03-07T01:24:23;101924.41;;;12.78;41.14
63652;BME280;68011;37.386;-122.002;2023-03-07T01:24:49;101925.38;;;12.69;41.45
63652;BME280;68011;37.386;-122.002;2023-03-07T01:25:15;101928.09;;;12.69;41.59
63652;BME280;68011;37.386;-122.002;2023-03-07T01:25:42;101918.53;;;12.65;41.57
63652;BME280;68011;37.386;-122.002;2023-03-07T01:26:13;101925.22;;;12.52;42.00
63652;BME280;68011;37.386;-122.002;2023-03-07T01:26:40;101927.41;;;12.49;41.95
63652;BME280;68011;37.386;-122.002;2023-03-07T01:27:06;101929.28;;;12.48;42.29
63652;BME280;68011;37.386;-122.002;2023-03-07T01:27:32;101924.84;;;12.47;42.38
63652;BME280;68011;37.386;-122.002;2023-03-07T01:27:58;101925.53;;;12.49;42.25
63652;BME280;68011;37.386;-122.002;2023-03-07T01:28:24;101926.56;;;12.48;42.55
63652;BME280;68011;37.386;-122.002;2023-03-07T01:28:52;101927.88;;;12.44;42.51
63652;BME280;68011;37.386;-122.002;2023-03-07T01:29:19;101933.00;;;12.47;42.53
63652;BME280;68011;37.386;-122.002;2023-03-07T01:29:45;101929.19;;;12.40;42.53
63652;BME280;68011;37.386;-122.002;2023-03-07T01:30:11;101928.13;;;12.33;42.39
63652;BME280;68011;37.386;-122.002;2023-03-07T01:30:38;101923.69;;;12.32;42.60
63652;BME280;68011;37.386;-122.002;2023-03-07T01:31:04;101928.81;;;12.35;42.65
63652;BME280;68011;37.386;-122.002;2023-03-07T01:31:30;101928.66;;;12.36;42.47
63652;BME280;68011;37.386;-122.002;2023-03-07T01:31:57;101927.41;;;12.31;42.56
63652;BME280;68011;37.386;-122.002;2023-03-07T01:32:23;101933.84;;;12.30;42.19
63652;BME280;68011;37.386;-122.002;2023-03-07T01:32:59;101931.84;;;12.32;42.57
63652;BME280;68011;37.386;-122.002;2023-03-07T01:33:26;101926.25;;;12.33;42.57
63652;BME280;68011;37.386;-122.002;2023-03-07T01:33:53;101933.94;;;12.38;42.58
63652;BME280;68011;37.386;-122.002;2023-03-07T01:34:19;101933.78;;;12.40;42.51
63652;BME280;68011;37.386;-122.002;2023-03-07T01:34:45;101932.75;;;12.41;42.19
63652;BME280;68011;37.386;-122.002;2023-03-07T01:35:11;101932.22;;;12.37;42.47
63652;BME280;68011;37.386;-122.002;2023-03-07T01:35:39;101930.28;;;12.29;42.75
63652;BME280;68011;37.386;-122.002;2023-03-07T01:36:18;101928.78;;;12.17;42.98
63652;BME280;68011;37.386;-122.002;2023-03-07T01:36:45;101938.97;;;12.15;43.02
63652;BME280;68011;37.386;-122.002;2023-03-07T01:37:11;101940.13;;;12.12;43.08
63652;BME280;68011;37.386;-122.002;2023-03-07T01:37:37;101932.38;;;12.17;42.90
63652;BME280;68011;37.386;-122.002;2023-03-07T01:38:04;101927.78;;;12.18;42.99
63652;BME280;68011;37.386;-122.002;2023-03-07T01:38:31;101935.78;;;12.19;43.46
63652;BME280;68011;37.386;-122.002;2023-03-07T01:39:11;101936.09;;;12.16;43.51
63652;BME280;68011;37.386;-122.002;2023-03-07T01:39:38;101930.50;;;12.00;43.72
63652;BME280;68011;37.386;-122.002;2023-03-07T01:40:05;101940.50;;;11.99;43.85
63652;BME280;68011;37.386;-122.002;2023-03-07T01:40:32;101941.66;;;11.97;43.62
63652;BME280;68011;37.386;-122.002;2023-03-07T01:41:00;101940.97;;;11.95;43.63
63652;BME280;68011;37.386;-122.002;2023-03-07T01:41:27;101938.28;;;11.85;43.67
63652;BME280;68011;37.386;-122.002;2023-03-07T01:41:56;101943.44;;;11.78;43.79
63652;BME280;68011;37.386;-122.002;2023-03-07T01:42:23;101935.31;;;11.78;44.17
63652;BME280;68011;37.386;-122.002;2023-03-07T01:42:49;101946.47;;;11.75;44.26
63652;BME280;68011;37.386;-122.002;2023-03-07T01:43:27;101941.25;;;11.64;44.60
63652;BME280;68011;37.386;-122.002;2023-03-07T01:43:53;101933.81;;;11.66;44.55
63652;BME280;68011;37.386;-122.002;2023-03-07T01:44:22;101943.34;;;11.70;44.71
63652;BME280;68011;37.386;-122.002;2023-03-07T01:46:00;101941.66;;;11.69;45.01
63652;BME280;68011;37.386;-122.002;2023-03-07T01:46:46;101937.50;;;11.65;44.99
63652;BME280;68011;37.386;-122.002;2023-03-07T01:47:12;101940.94;;;11.67;44.83
63652;BME280;68011;37.386;-122.002;2023-03-07T01:47:40;101938.22;;;11.67;45.27
63652;BME280;68011;37.386;-122.002;2023-03-07T01:48:08;101940.94;;;11.67;45.43
63652;BME280;68011;37.386;-122.002;2023-03-07T01:48:34;101944.38;;;11.69;45.65
63652;BME280;68011;37.386;-122.002;2023-03-07T01:49:10;101943.91;;;11.74;45.61
63652;BME280;68011;37.386;-122.002;2023-03-07T01:49:41;101933.78;;;11.76;45.74
63652;BME280;68011;37.386;-122.002;2023-03-07T01:50:14;101941.03;;;11.75;45.40
63652;BME280;68011;37.386;-122.002;2023-03-07T01:50:41;101943.44;;;11.78;45.58
63652;BME280;68011;37.386;-122.002;2023-03-07T01:51:09;101937.03;;;11.79;45.24
63652;BME280;68011;37.386;-122.002;2023-03-07T01:51:38;101934.91;;;11.73;45.80
63652;BME280;68011;37.386;-122.002;2023-03-07T01:52:42;101941.25;;;11.64;46.09
63652;BME280;68011;37.386;-122.002;2023-03-07T01:53:10;101937.25;;;11.58;46.18
63652;BME280;68011;37.386;-122.002;2023-03-07T01:53:37;101936.41;;;11.58;46.29
63652;BME280;68011;37.386;-122.002;2023-03-07T01:54:05;101937.81;;;11.62;46.30
63652;BME280;68011;37.386;-122.002;2023-03-07T01:54:35;101939.25;;;11.66;46.08
63652;BME280;68011;37.386;-122.002;2023-03-07T01:55:13;101944.50;;;11.68;46.53
63652;BME280;68011;37.386;-122.002;2023-03-07T01:55:41;101936.53;;;11.66;46.73
63652;BME280;68011;37.386;-122.002;2023-03-07T01:56:08;101936.81;;;11.63;46.87
63652;BME280;68011;37.386;-122.002;2023-03-07T01:56:36;101943.56;;;11.59;46.88
63652;BME280;68011;37.386;-122.002;2023-03-07T01:57:03;101942.13;;;11.55;47.22
63652;BME280;68011;37.386;-122.002;2023-03-07T01:57:36;101944.03;;;11.44;47.11
63652;BME280;68011;37.386;-122.002;2023-03-07T01:58:06;101941.25;;;11.36;47.37
63652;BME280;68011;37.386;-122.002;2023-03-07T01:58:35;101950.22;;;11.37;47.74
63652;BME280;68011;37.386;-122.002;2023-03-07T01:59:03;101943.63;;;11.39;47.64
63652;BME280;68011;37.386;-122.002;2023-03-07T01:59:32;101947.78;;;11.34;48.01
63652;BME280;68011;37.386;-122.002;2023-03-07T02:00:01;101942.81;;;11.29;47.99
63652;BME280;68011;37.386;-122.002;2023-03-07T02:00:33;101949.09;;;11.30;48.22
63652;BME280;68011;37.386;-122.002;2023-03-07T02:01:05;101952.09;;;11.26;48.26
63652;BME280;68011;37.386;-122.002;2023-03-07T02:01:33;101953.38;;;11.22;48.08
63652;BME280;68011;37.386;-122.002;2023-03-07T02:02:05;101953.69;;;11.19;48.10
63652;BME280;68011;37.386;-122.002;2023-03-07T02:02:33;101952.53;;;11.22;48.42
63652;BME280;68011;37.386;-122.002;2023-03-07T02:03:33;101954.97;;;11.25;48.53
63652;BME280;68011;37.386;-122.002;2023-03-07T02:04:39;101950.09;;;11.29;48.42
63652;BME280;68011;37.386;-122.002;2023-03-07T02:05:14;101953.56;;;11.21;48.50
63652;BME280;68011;37.386;-122.002;2023-03-07T02:05:52;101950.25;;;11.17;48.92
63652;BME280;68011;37.386;-122.002;2023-03-07T02:06:20;101955.44;;;11.11;48.45
63652;BME280;68011;37.386;-122.002;2023-03-07T02:06:46;101956.16;;;11.03;48.42
63652;BME280;68011;37.386;-122.002;2023-03-07T02:07:14;101956.84;;;11.05;48.48
63652;BME280;68011;37.386;-122.002;2023-03-07T02:07:49;101953.72;;;11.10;48.76
63652;BME280;68011;37.386;-122.002;2023-03-07T02:08:17;101949.84;;;11.12;48.70
63652;BME280;68011;37.386;-122.002;2023-03-07T02:08:47;101959.13;;;11.10;48.66
63652;BME280;68011;37.386;-122.002;2023-03-07T02:09:17;101950.88;;;11.01;48.62
63652;BME280;68011;37.386;-122.002;2023-03-07T02:09:46;101956.31;;;11.01;48.58
63652;BME280;68011;37.386;-122.002;2023-03-07T02:10:15;101955.47;;;11.01;48.95
63652;BME280;68011;37.386;-122.002;2023-03-07T02:10:42;101957.16;;;11.02;49.05
63652;BME280;68011;37.386;-122.002;2023-03-07T02:11:10;101959.28;;;10.98;49.18
63652;BME280;68011;37.386;-122.002;2023-03-07T02:11:39;101960.59;;;10.94;49.54
63652;BME280;68011;37.386;-122.002;2023-03-07T02:12:06;101952.75;;;10.91;49.58
63652;BME280;68011;37.386;-122.002;2023-03-07T02:12:33;101956.34;;;10.92;49.17
63652;BME280;68011;37.386;-122.002;2023-03-07T02:12:59;101957.75;;;10.96;49.39
63652;BME280;68011;37.386;-122.002;2023-03-07T02:13:26;101953.78;;;10.90;49.26
63652;BME280;68011;37.386;-122.002;2023-03-07T02:13:52;101953.16;;;10.96;49.28
63652;BME280;68011;37.386;-122.002;2023-03-07T02:14:18;101958.88;;;10.93;49.61
63652;BME280;68011;37.386;-122.002;2023-03-07T02:14:46;101957.19;;;10.92;49.37
63652;BME280;68011;37.386;-122.002;2023-03-07T02:15:14;101956.16;;;10.93;49.51
63652;BME280;68011;37.386;-122.002;2023-03-07T02:15:40;101955.47;;;10.91;49.59
63652;BME280;68011;37.386;-122.002;2023-03-07T02:16:07;101964.28;;;10.93;49.68
63652;BME280;68011;37.386;-122.002;2023-03-07T02:16:35;101955.88;;;10.96;49.46
63652;BME280;68011;37.386;-122.002;2023-03-07T02:17:02;101960.16;;;10.99;49.32
63652;BME280;68011;37.386;-122.002;2023-03-07T02:17:28;101960.88;;;11.01;49.61
63652;BME280;68011;37.386;-122.002;2023-03-07T02:17:57;101960.72;;;11.02;49.27
63652;BME280;68011;37.386;-122.002;2023-03-07T02:18:25;101960.72;;;11.02;49.69
63652;BME280;68011;37.386;-122.002;2023-03-07T02:18:53;101958.31;;;10.99;49.65
63652;BME280;68011;37.386;-122.002;2023-03-07T02:19:41;101957.19;;;10.92;50.18
63652;BME280;68011;37.386;-122.002;2023-03-07T02:21:04;101960.88;;;10.91;50.22
63652;BME280;68011;37.386;-122.002;2023-03-07T02:22:16;101962.31;;;10.76;50.40
63652;BME280;68011;37.386;-122.002;2023-03-07T02:22:43;101963.19;;;10.66;50.62
63652;BME280;68011;37.386;-122.002;2023-03-07T02:23:18;101967.31;;;10.70;50.38